Carnival Victory — 3FFL8 — position and weather

sailwx.info

Track history (hours):
 
Tides and Currents Weather Stations Pressure Air Temp Water Temp Dewpoint Dewpoint Depression Visibility Wind Speed Wind Dir Waves Ship Positions

Carnival Victory

Operator: Carnival Cruise Lines

Last reported at 2019-Sep-21 21:00 UTC. Time now 2019-Sep-21 23:49 UTC.
Position N 26°24' W 079°06'.

Type: Passenger vessel. MMSI: 355263000.

Wind from 020 at 42 knots

Barometer 1016.1 mb
Air temperature 28.0 ° C
Dewpoint 25.3 ° C
Water temperature 30.0 ° C

Date/timePositionNaut miles runAvg speedWind from/ knotsBaromVisibWave heightAir tempDewpointWater temp
2019-Sep-21 21:00N 26°24' W 079°06'2012.8 020 / 421016.1 28.025.330.0
2019-Sep-21 19:26N 26°35' W 079°24'910.0
2019-Sep-21 18:32N 26°26' W 079°27'410.1
2019-Sep-21 18:06N 26°22' W 079°28'110.0
2019-Sep-21 17:58N 26°21' W 079°28'510.1
2019-Sep-21 17:30N 26°16' W 079°30'510.2
2019-Sep-21 17:00N 26°11' W 079°30'510.0
2019-Sep-21 16:30N 26°08' W 079°26'510.0
2019-Sep-21 16:00N 26°10' W 079°20'510.4
2019-Sep-21 15:30N 26°13' W 079°15'4312.2
2019-Sep-21 12:00N 26°00' W 078°30'25 8.2 050 / 221017.0 28.025.330.0
2019-Sep-21 09:00N 26°12' W 078°06'5510.0 040 / 421015.3 29.024.930.0
2019-Sep-21 03:28N 26°18' W 079°07'4 8.9
2019-Sep-21 02:59N 26°17' W 079°12'5 9.3
2019-Sep-21 02:29N 26°15' W 079°17'5 9.9
2019-Sep-21 02:00N 26°13' W 079°21'510.1
2019-Sep-21 01:30N 26°10' W 079°26'510.2
2019-Sep-21 01:00N 26°07' W 079°30'510.2
2019-Sep-21 00:30N 26°04' W 079°35'510.6
2019-Sep-21 00:00N 26°01' W 079°40'7470.1
2019-Sep-21 00:00N 25°54' W 079°42'510.6 030 / 281016.7 28.025.330.0
2019-Sep-20 23:30N 25°58' W 079°46'612.3
2019-Sep-20 23:00N 25°54' W 079°51'612.6
2019-Sep-20 22:30N 25°51' W 079°57'611.8
2019-Sep-20 22:00N 25°46' W 080°02'5295.8
2019-Sep-20 22:00N 25°42' W 080°00'612.3 030 / 321015.3 28.023.930.0
2019-Sep-20 21:30N 25°46' W 080°05'510.0
2019-Sep-20 21:00N 25°47' W 080°10'0 0.5
2019-Sep-20 20:30N 25°47' W 080°10'0 0.0
2019-Sep-20 20:00N 25°47' W 080°10'0 0.0
2019-Sep-20 19:30N 25°47' W 080°10'0 0.0
2019-Sep-20 19:00N 25°47' W 080°10'0 0.0
2019-Sep-20 18:30N 25°47' W 080°10'0 0.0
2019-Sep-20 18:00N 25°47' W 080°10'0 0.0
2019-Sep-20 17:30N 25°47' W 080°10'0 0.0
2019-Sep-20 17:00N 25°47' W 080°10'0 0.0
2019-Sep-20 16:30N 25°47' W 080°10'0 0.0
2019-Sep-20 16:00N 25°47' W 080°10'0 0.0
2019-Sep-20 15:30N 25°47' W 080°10'0 0.0
2019-Sep-20 15:00N 25°47' W 080°10'0 0.0
2019-Sep-20 14:30N 25°47' W 080°10'0 0.0
2019-Sep-20 13:59N 25°47' W 080°10'0 0.0
2019-Sep-20 13:29N 25°47' W 080°10'0 0.0
2019-Sep-20 12:59N 25°47' W 080°10'0 0.0
2019-Sep-20 12:29N 25°47' W 080°10'0 0.0
2019-Sep-20 11:59N 25°47' W 080°10'0 0.0
2019-Sep-20 11:29N 25°47' W 080°10'0 0.0
2019-Sep-20 10:59N 25°47' W 080°10'1 1.9
2019-Sep-20 10:31N 25°46' W 080°09'510.2
2019-Sep-20 10:00N 25°47' W 080°04'4 7.9
2019-Sep-20 09:30N 25°45' W 079°60'714.3
2019-Sep-20 09:00N 25°39' W 079°55'714.4
2019-Sep-20 08:31N 25°32' W 079°54'816.1
2019-Sep-20 08:01N 25°24' W 079°53'1115.9
2019-Sep-20 07:19N 25°13' W 079°53'18017.4
2019-Sep-19 21:00N 23°18' W 082°24'19616.3 010 / 291011.2 29.025.030.0
2019-Sep-19 09:00N 21°54' W 085°36'9218.1 040 / 231011.0 29.023.530.0
2019-Sep-19 03:53N 20°49' W 086°46'718.6
2019-Sep-19 03:31N 20°43' W 086°51'917.8
2019-Sep-19 03:01N 20°36' W 086°57'510.7
2019-Sep-19 02:30N 20°31' W 086°59'3 5.3
2019-Sep-19 02:00N 20°29' W 086°59'0 0.0
2019-Sep-19 01:28N 20°29' W 086°59'0 0.0
2019-Sep-19 00:58N 20°29' W 086°59'0 0.0
2019-Sep-19 00:25N 20°29' W 086°59'0 0.0
2019-Sep-18 23:58N 20°29' W 086°59'0 0.0
2019-Sep-18 23:28N 20°29' W 086°59'0 0.0
2019-Sep-18 22:58N 20°29' W 086°59'0 0.0
2019-Sep-18 22:28N 20°29' W 086°59'0 0.0
2019-Sep-18 21:55N 20°29' W 086°59'0 0.0
2019-Sep-18 21:28N 20°29' W 086°59'0 0.0
2019-Sep-18 20:55N 20°29' W 086°59'0 0.0
2019-Sep-18 20:25N 20°29' W 086°59'0 0.0
2019-Sep-18 19:58N 20°29' W 086°59'0 0.0
2019-Sep-18 19:25N 20°29' W 086°59'0 0.0
2019-Sep-18 18:58N 20°29' W 086°59'0 0.0
2019-Sep-18 18:28N 20°29' W 086°59'0 0.0
2019-Sep-18 17:58N 20°29' W 086°59'0 0.0
2019-Sep-18 17:28N 20°29' W 086°59'0 0.0
2019-Sep-18 16:58N 20°29' W 086°59'0 0.0
2019-Sep-18 16:28N 20°29' W 086°59'0 0.0
2019-Sep-18 15:58N 20°29' W 086°59'0 0.1
2019-Sep-18 15:30N 20°29' W 086°59'3 5.9
2019-Sep-18 15:00N 20°32' W 086°59'4 7.9
2019-Sep-18 14:30N 20°35' W 086°57'611.3
2019-Sep-18 14:00N 20°39' W 086°53'9916.5
2019-Sep-18 08:00N 21°48' W 085°36'22520.5 310 / 121013.0 29.023.530.0
2019-Sep-17 21:00N 24°00' W 082°18'43 5.1 050 / 61012.9 29.026.330.0
2019-Sep-17 12:38N 24°34' W 081°49'0 0.0
2019-Sep-17 12:26N 24°34' W 081°49'0 0.0
2019-Sep-17 11:50N 24°34' W 081°49'0 0.0
2019-Sep-17 11:20N 24°34' W 081°49'19 8.2
2019-Sep-17 09:00N 24°18' W 081°36'9411.4 080 / 181012.5 28.023.930.0
2019-Sep-17 00:47N 24°58' W 080°03'312.5
2019-Sep-17 00:30N 25°01' W 080°00'612.6
2019-Sep-17 00:00N 25°07' W 079°58'612.7
2019-Sep-16 23:30N 25°13' W 079°56'612.6
2019-Sep-16 23:00N 25°19' W 079°55'612.4
2019-Sep-16 22:30N 25°25' W 079°53'611.7
2019-Sep-16 22:01N 25°31' W 079°54'714.8
2019-Sep-16 21:31N 25°38' W 079°57'815.2
2019-Sep-16 21:00N 25°44' W 080°01'4 8.7
2019-Sep-16 20:30N 25°46' W 080°06'4 8.1
2019-Sep-16 20:00N 25°47' W 080°10'0 0.0
2019-Sep-16 19:27N 25°47' W 080°10'0 0.0
2019-Sep-16 18:57N 25°47' W 080°10'0 0.0
2019-Sep-16 18:27N 25°47' W 080°10'0 0.0
2019-Sep-16 17:57N 25°47' W 080°10'0 0.0
2019-Sep-16 17:27N 25°47' W 080°10'0 0.0
2019-Sep-16 17:01N 25°47' W 080°10'0 0.0
2019-Sep-16 16:30N 25°47' W 080°10'0 0.0
2019-Sep-16 16:00N 25°47' W 080°10'0 0.0
2019-Sep-16 15:30N 25°47' W 080°10'0 0.0
2019-Sep-16 14:57N 25°47' W 080°10'0 0.0
2019-Sep-16 14:30N 25°47' W 080°10'0 0.0
2019-Sep-16 14:00N 25°47' W 080°10'0 0.0
2019-Sep-16 13:30N 25°47' W 080°10'0 0.0
2019-Sep-16 13:00N 25°47' W 080°10'0 0.0
2019-Sep-16 12:30N 25°47' W 080°10'0 0.0
2019-Sep-16 12:00N 25°47' W 080°10'0 0.0
2019-Sep-16 11:30N 25°47' W 080°10'0 0.0
2019-Sep-16 10:57N 25°47' W 080°10'1 1.9
2019-Sep-16 10:30N 25°47' W 080°11'2 4.6
2019-Sep-16 10:00N 25°46' W 080°09'611.7
2019-Sep-16 09:30N 25°47' W 080°02'612.6
2019-Sep-16 09:00N 25°49' W 079°56'612.5
2019-Sep-16 08:30N 25°53' W 079°50'714.9
2019-Sep-16 08:00N 25°56' W 079°43'714.8
2019-Sep-16 07:30N 26°01' W 079°36'815.0
2019-Sep-16 07:00N 26°05' W 079°29'815.4
2019-Sep-16 06:30N 26°09' W 079°22'918.6
2019-Sep-16 06:00N 26°14' W 079°13'6917.2
2019-Sep-16 02:00N 25°54' W 078°00'6613.2 180 / 381013.910.8 28.025.329.0
2019-Sep-15 21:00N 25°00' W 077°18'117 5.3 140 / 101012.9 28.025.330.0
2019-Sep-14 23:00N 26°12' W 079°00'10 9.4 350 / 171011.4 28.023.930.0
2019-Sep-14 21:57N 26°16' W 079°10'512.4
2019-Sep-14 21:30N 26°14' W 079°15'612.8
2019-Sep-14 21:00N 26°11' W 079°22'510.3
2019-Sep-14 20:30N 26°15' W 079°27'510.2
2019-Sep-14 20:00N 26°20' W 079°25'611.2
2019-Sep-14 19:30N 26°24' W 079°22'9 9.7
2019-Sep-14 18:37N 26°22' W 079°13'212.9
2019-Sep-14 18:30N 26°21' W 079°13'612.0
2019-Sep-14 18:01N 26°17' W 079°18'612.7
2019-Sep-14 17:30N 26°13' W 079°23'613.1
2019-Sep-14 17:00N 26°08' W 079°28'613.0
2019-Sep-14 16:30N 26°03' W 079°33'510.2
2019-Sep-14 16:00N 25°59' W 079°31'510.6
2019-Sep-14 15:30N 26°01' W 079°26'510.9
2019-Sep-14 15:01N 26°06' W 079°23'710.7
2019-Sep-14 14:21N 26°11' W 079°17'411.0
2019-Sep-14 14:00N 26°13' W 079°14'611.2
2019-Sep-14 13:26N 26°17' W 079°08'5111.4
2019-Sep-14 09:00N 25°54' W 078°18'54 7.8 030 / 101011.2 28.025.330.0
2019-Sep-14 02:03N 26°14' W 079°14'110.2
2019-Sep-14 01:59N 26°14' W 079°14'510.2
2019-Sep-14 01:30N 26°12' W 079°19'510.5
2019-Sep-14 01:00N 26°09' W 079°24'510.5
2019-Sep-14 00:31N 26°06' W 079°29'510.8
2019-Sep-14 00:00N 26°03' W 079°34'4457.0
2019-Sep-14 00:00N 26°00' W 079°30'816.1 050 / 251013.1 28.023.930.0
2019-Sep-13 23:30N 26°00' W 079°39'612.1
2019-Sep-13 23:01N 25°57' W 079°44'612.6
2019-Sep-13 22:30N 25°53' W 079°50'612.6
2019-Sep-13 22:01N 25°50' W 079°56'5 9.6
2019-Sep-13 21:30N 25°47' W 080°01'4 7.7
2019-Sep-13 21:01N 25°46' W 080°05'5 9.6
2019-Sep-13 20:30N 25°47' W 080°10'0 0.8
2019-Sep-13 20:00N 25°47' W 080°10'0 0.0
2019-Sep-13 19:31N 25°47' W 080°10'0 0.0
2019-Sep-13 19:01N 25°47' W 080°10'0 0.0
2019-Sep-13 18:31N 25°47' W 080°10'0 0.0
2019-Sep-13 18:01N 25°47' W 080°10'0 0.0
2019-Sep-13 17:30N 25°47' W 080°10'0 0.0
2019-Sep-13 17:01N 25°47' W 080°10'0 0.0
2019-Sep-13 16:30N 25°47' W 080°10'0 0.0
2019-Sep-13 16:00N 25°47' W 080°10'0 0.0
2019-Sep-13 15:31N 25°47' W 080°10'0 0.0
2019-Sep-13 15:01N 25°47' W 080°10'0 0.0
2019-Sep-13 14:30N 25°47' W 080°10'0 0.0
2019-Sep-13 14:01N 25°47' W 080°10'0 0.0
2019-Sep-13 13:30N 25°47' W 080°10'0 0.0
2019-Sep-13 13:00N 25°47' W 080°10'0 0.0
2019-Sep-13 12:31N 25°47' W 080°10'0 0.0
2019-Sep-13 12:01N 25°47' W 080°10'0 0.0
2019-Sep-13 11:31N 25°47' W 080°10'0 0.0
2019-Sep-13 11:01N 25°47' W 080°10'0 0.6
2019-Sep-13 10:31N 25°47' W 080°10'4 8.5
2019-Sep-13 10:00N 25°46' W 080°05'6372.7
2019-Sep-13 10:00N 25°42' W 080°00'3 7.2 040 / 221011.7 28.023.930.0
2019-Sep-13 09:30N 25°45' W 079°60'714.4
2019-Sep-13 09:00N 25°40' W 079°55'714.9
2019-Sep-13 08:30N 25°33' W 079°54'713.7
2019-Sep-13 08:00N 25°26' W 079°53'815.9
2019-Sep-13 07:30N 25°18' W 079°51'14817.3
2019-Sep-12 23:00N 23°30' W 081°42'1817.6 010 / 221011.2 29.025.030.0
2019-Sep-12 22:00N 23°24' W 082°00'19916.5 010 / 231010.9 29.025.030.0
2019-Sep-12 10:00N 22°06' W 085°18'11618.2 050 / 181012.1 30.026.030.0
2019-Sep-12 03:39N 20°46' W 086°48'318.8
2019-Sep-12 03:30N 20°44' W 086°50'919.1
2019-Sep-12 03:00N 20°37' W 086°56'612.3
2019-Sep-12 02:30N 20°31' W 086°59'2 4.3
2019-Sep-12 01:56N 20°29' W 086°59'0 0.0
2019-Sep-12 01:26N 20°29' W 086°59'0 0.0
2019-Sep-12 00:56N 20°29' W 086°59'0 0.0
2019-Sep-12 00:26N 20°29' W 086°59'0 0.0
2019-Sep-11 23:56N 20°29' W 086°59'0 0.0
2019-Sep-11 23:26N 20°29' W 086°59'614.3
2019-Sep-11 23:00N 20°24' W 086°54'6111.6 030 / 91012.0 29.026.330.0
2019-Sep-11 22:56N 20°29' W 086°59'0 0.0
2019-Sep-11 22:26N 20°29' W 086°59'0 0.0
2019-Sep-11 21:56N 20°29' W 086°59'0 0.0
2019-Sep-11 21:26N 20°29' W 086°59'  
Track history (hours):
 
Tides and Currents Weather Stations Pressure Air Temp Water Temp Dewpoint Dewpoint Depression Visibility Wind Speed Wind Dir Waves Ship Positions

Carnival Victory

Operator: Carnival Cruise Lines

Last reported at 2019-Sep-21 21:00 UTC. Time now 2019-Sep-21 23:49 UTC.
Position N 26°24' W 079°06'.

Type: Passenger vessel. MMSI: 355263000.

Wind from 020 at 42 knots

Barometer 1016.1 mb
Air temperature 28.0 ° C
Dewpoint 25.3 ° C
Water temperature 30.0 ° C

Date/timePositionNaut miles runAvg speedWind from/ knotsBaromVisibWave heightAir tempDewpointWater temp
2019-Sep-21 21:00N 26°24' W 079°06'2012.8 020 / 421016.1 28.025.330.0
2019-Sep-21 19:26N 26°35' W 079°24'910.0
2019-Sep-21 18:32N 26°26' W 079°27'410.1
2019-Sep-21 18:06N 26°22' W 079°28'110.0
2019-Sep-21 17:58N 26°21' W 079°28'510.1
2019-Sep-21 17:30N 26°16' W 079°30'510.2
2019-Sep-21 17:00N 26°11' W 079°30'510.0
2019-Sep-21 16:30N 26°08' W 079°26'510.0
2019-Sep-21 16:00N 26°10' W 079°20'510.4
2019-Sep-21 15:30N 26°13' W 079°15'4312.2
2019-Sep-21 12:00N 26°00' W 078°30'25 8.2 050 / 221017.0 28.025.330.0
2019-Sep-21 09:00N 26°12' W 078°06'5510.0 040 / 421015.3 29.024.930.0
2019-Sep-21 03:28N 26°18' W 079°07'4 8.9
2019-Sep-21 02:59N 26°17' W 079°12'5 9.3
2019-Sep-21 02:29N 26°15' W 079°17'5 9.9
2019-Sep-21 02:00N 26°13' W 079°21'510.1
2019-Sep-21 01:30N 26°10' W 079°26'510.2
2019-Sep-21 01:00N 26°07' W 079°30'510.2
2019-Sep-21 00:30N 26°04' W 079°35'510.6
2019-Sep-21 00:00N 26°01' W 079°40'7470.1
2019-Sep-21 00:00N 25°54' W 079°42'510.6 030 / 281016.7 28.025.330.0
2019-Sep-20 23:30N 25°58' W 079°46'612.3
2019-Sep-20 23:00N 25°54' W 079°51'612.6
2019-Sep-20 22:30N 25°51' W 079°57'611.8
2019-Sep-20 22:00N 25°46' W 080°02'5295.8
2019-Sep-20 22:00N 25°42' W 080°00'612.3 030 / 321015.3 28.023.930.0
2019-Sep-20 21:30N 25°46' W 080°05'510.0
2019-Sep-20 21:00N 25°47' W 080°10'0 0.5
2019-Sep-20 20:30N 25°47' W 080°10'0 0.0
2019-Sep-20 20:00N 25°47' W 080°10'0 0.0
2019-Sep-20 19:30N 25°47' W 080°10'0 0.0
2019-Sep-20 19:00N 25°47' W 080°10'0 0.0
2019-Sep-20 18:30N 25°47' W 080°10'0 0.0
2019-Sep-20 18:00N 25°47' W 080°10'0 0.0
2019-Sep-20 17:30N 25°47' W 080°10'0 0.0
2019-Sep-20 17:00N 25°47' W 080°10'0 0.0
2019-Sep-20 16:30N 25°47' W 080°10'0 0.0
2019-Sep-20 16:00N 25°47' W 080°10'0 0.0
2019-Sep-20 15:30N 25°47' W 080°10'0 0.0
2019-Sep-20 15:00N 25°47' W 080°10'0 0.0
2019-Sep-20 14:30N 25°47' W 080°10'0 0.0
2019-Sep-20 13:59N 25°47' W 080°10'0 0.0
2019-Sep-20 13:29N 25°47' W 080°10'0 0.0
2019-Sep-20 12:59N 25°47' W 080°10'0 0.0
2019-Sep-20 12:29N 25°47' W 080°10'0 0.0
2019-Sep-20 11:59N 25°47' W 080°10'0 0.0
2019-Sep-20 11:29N 25°47' W 080°10'0 0.0
2019-Sep-20 10:59N 25°47' W 080°10'1 1.9
2019-Sep-20 10:31N 25°46' W 080°09'510.2
2019-Sep-20 10:00N 25°47' W 080°04'4 7.9
2019-Sep-20 09:30N 25°45' W 079°60'714.3
2019-Sep-20 09:00N 25°39' W 079°55'714.4
2019-Sep-20 08:31N 25°32' W 079°54'816.1
2019-Sep-20 08:01N 25°24' W 079°53'1115.9
2019-Sep-20 07:19N 25°13' W 079°53'18017.4
2019-Sep-19 21:00N 23°18' W 082°24'19616.3 010 / 291011.2 29.025.030.0
2019-Sep-19 09:00N 21°54' W 085°36'9218.1 040 / 231011.0 29.023.530.0
2019-Sep-19 03:53N 20°49' W 086°46'718.6
2019-Sep-19 03:31N 20°43' W 086°51'917.8
2019-Sep-19 03:01N 20°36' W 086°57'510.7
2019-Sep-19 02:30N 20°31' W 086°59'3 5.3
2019-Sep-19 02:00N 20°29' W 086°59'0 0.0
2019-Sep-19 01:28N 20°29' W 086°59'0 0.0
2019-Sep-19 00:58N 20°29' W 086°59'0 0.0
2019-Sep-19 00:25N 20°29' W 086°59'0 0.0
2019-Sep-18 23:58N 20°29' W 086°59'0 0.0
2019-Sep-18 23:28N 20°29' W 086°59'0 0.0
2019-Sep-18 22:58N 20°29' W 086°59'0 0.0
2019-Sep-18 22:28N 20°29' W 086°59'0 0.0
2019-Sep-18 21:55N 20°29' W 086°59'0 0.0
2019-Sep-18 21:28N 20°29' W 086°59'0 0.0
2019-Sep-18 20:55N 20°29' W 086°59'0 0.0
2019-Sep-18 20:25N 20°29' W 086°59'0 0.0
2019-Sep-18 19:58N 20°29' W 086°59'0 0.0
2019-Sep-18 19:25N 20°29' W 086°59'0 0.0
2019-Sep-18 18:58N 20°29' W 086°59'0 0.0
2019-Sep-18 18:28N 20°29' W 086°59'0 0.0
2019-Sep-18 17:58N 20°29' W 086°59'0 0.0
2019-Sep-18 17:28N 20°29' W 086°59'0 0.0
2019-Sep-18 16:58N 20°29' W 086°59'0 0.0
2019-Sep-18 16:28N 20°29' W 086°59'0 0.0
2019-Sep-18 15:58N 20°29' W 086°59'0 0.1
2019-Sep-18 15:30N 20°29' W 086°59'3 5.9
2019-Sep-18 15:00N 20°32' W 086°59'4 7.9
2019-Sep-18 14:30N 20°35' W 086°57'611.3
2019-Sep-18 14:00N 20°39' W 086°53'9916.5
2019-Sep-18 08:00N 21°48' W 085°36'22520.5 310 / 121013.0 29.023.530.0
2019-Sep-17 21:00N 24°00' W 082°18'43 5.1 050 / 61012.9 29.026.330.0
2019-Sep-17 12:38N 24°34' W 081°49'0 0.0
2019-Sep-17 12:26N 24°34' W 081°49'0 0.0
2019-Sep-17 11:50N 24°34' W 081°49'0 0.0
2019-Sep-17 11:20N 24°34' W 081°49'19 8.2
2019-Sep-17 09:00N 24°18' W 081°36'9411.4 080 / 181012.5 28.023.930.0
2019-Sep-17 00:47N 24°58' W 080°03'312.5
2019-Sep-17 00:30N 25°01' W 080°00'612.6
2019-Sep-17 00:00N 25°07' W 079°58'612.7
2019-Sep-16 23:30N 25°13' W 079°56'612.6
2019-Sep-16 23:00N 25°19' W 079°55'612.4
2019-Sep-16 22:30N 25°25' W 079°53'611.7
2019-Sep-16 22:01N 25°31' W 079°54'714.8
2019-Sep-16 21:31N 25°38' W 079°57'815.2
2019-Sep-16 21:00N 25°44' W 080°01'4 8.7
2019-Sep-16 20:30N 25°46' W 080°06'4 8.1
2019-Sep-16 20:00N 25°47' W 080°10'0 0.0
2019-Sep-16 19:27N 25°47' W 080°10'0 0.0
2019-Sep-16 18:57N 25°47' W 080°10'0 0.0
2019-Sep-16 18:27N 25°47' W 080°10'0 0.0
2019-Sep-16 17:57N 25°47' W 080°10'0 0.0
2019-Sep-16 17:27N 25°47' W 080°10'0 0.0
2019-Sep-16 17:01N 25°47' W 080°10'0 0.0
2019-Sep-16 16:30N 25°47' W 080°10'0 0.0
2019-Sep-16 16:00N 25°47' W 080°10'0 0.0
2019-Sep-16 15:30N 25°47' W 080°10'0 0.0
2019-Sep-16 14:57N 25°47' W 080°10'0 0.0
2019-Sep-16 14:30N 25°47' W 080°10'0 0.0
2019-Sep-16 14:00N 25°47' W 080°10'0 0.0
2019-Sep-16 13:30N 25°47' W 080°10'0 0.0
2019-Sep-16 13:00N 25°47' W 080°10'0 0.0
2019-Sep-16 12:30N 25°47' W 080°10'0 0.0
2019-Sep-16 12:00N 25°47' W 080°10'0 0.0
2019-Sep-16 11:30N 25°47' W 080°10'0 0.0
2019-Sep-16 10:57N 25°47' W 080°10'1 1.9
2019-Sep-16 10:30N 25°47' W 080°11'2 4.6
2019-Sep-16 10:00N 25°46' W 080°09'611.7
2019-Sep-16 09:30N 25°47' W 080°02'612.6
2019-Sep-16 09:00N 25°49' W 079°56'612.5
2019-Sep-16 08:30N 25°53' W 079°50'714.9
2019-Sep-16 08:00N 25°56' W 079°43'714.8
2019-Sep-16 07:30N 26°01' W 079°36'815.0
2019-Sep-16 07:00N 26°05' W 079°29'815.4
2019-Sep-16 06:30N 26°09' W 079°22'918.6
2019-Sep-16 06:00N 26°14' W 079°13'6917.2
2019-Sep-16 02:00N 25°54' W 078°00'6613.2 180 / 381013.910.8 28.025.329.0
2019-Sep-15 21:00N 25°00' W 077°18'117 5.3 140 / 101012.9 28.025.330.0
2019-Sep-14 23:00N 26°12' W 079°00'10 9.4 350 / 171011.4 28.023.930.0
2019-Sep-14 21:57N 26°16' W 079°10'512.4
2019-Sep-14 21:30N 26°14' W 079°15'612.8
2019-Sep-14 21:00N 26°11' W 079°22'510.3
2019-Sep-14 20:30N 26°15' W 079°27'510.2
2019-Sep-14 20:00N 26°20' W 079°25'611.2
2019-Sep-14 19:30N 26°24' W 079°22'9 9.7
2019-Sep-14 18:37N 26°22' W 079°13'212.9
2019-Sep-14 18:30N 26°21' W 079°13'612.0
2019-Sep-14 18:01N 26°17' W 079°18'612.7
2019-Sep-14 17:30N 26°13' W 079°23'613.1
2019-Sep-14 17:00N 26°08' W 079°28'613.0
2019-Sep-14 16:30N 26°03' W 079°33'510.2
2019-Sep-14 16:00N 25°59' W 079°31'510.6
2019-Sep-14 15:30N 26°01' W 079°26'510.9
2019-Sep-14 15:01N 26°06' W 079°23'710.7
2019-Sep-14 14:21N 26°11' W 079°17'411.0
2019-Sep-14 14:00N 26°13' W 079°14'611.2
2019-Sep-14 13:26N 26°17' W 079°08'5111.4
2019-Sep-14 09:00N 25°54' W 078°18'54 7.8 030 / 101011.2 28.025.330.0
2019-Sep-14 02:03N 26°14' W 079°14'110.2
2019-Sep-14 01:59N 26°14' W 079°14'510.2
2019-Sep-14 01:30N 26°12' W 079°19'510.5
2019-Sep-14 01:00N 26°09' W 079°24'510.5
2019-Sep-14 00:31N 26°06' W 079°29'510.8
2019-Sep-14 00:00N 26°03' W 079°34'4457.0
2019-Sep-14 00:00N 26°00' W 079°30'816.1 050 / 251013.1 28.023.930.0
2019-Sep-13 23:30N 26°00' W 079°39'612.1
2019-Sep-13 23:01N 25°57' W 079°44'612.6
2019-Sep-13 22:30N 25°53' W 079°50'612.6
2019-Sep-13 22:01N 25°50' W 079°56'5 9.6
2019-Sep-13 21:30N 25°47' W 080°01'4 7.7
2019-Sep-13 21:01N 25°46' W 080°05'5 9.6
2019-Sep-13 20:30N 25°47' W 080°10'0 0.8
2019-Sep-13 20:00N 25°47' W 080°10'0 0.0
2019-Sep-13 19:31N 25°47' W 080°10'0 0.0
2019-Sep-13 19:01N 25°47' W 080°10'0 0.0
2019-Sep-13 18:31N 25°47' W 080°10'0 0.0
2019-Sep-13 18:01N 25°47' W 080°10'0 0.0
2019-Sep-13 17:30N 25°47' W 080°10'0 0.0
2019-Sep-13 17:01N 25°47' W 080°10'0 0.0
2019-Sep-13 16:30N 25°47' W 080°10'0 0.0
2019-Sep-13 16:00N 25°47' W 080°10'0 0.0
2019-Sep-13 15:31N 25°47' W 080°10'0 0.0
2019-Sep-13 15:01N 25°47' W 080°10'0 0.0
2019-Sep-13 14:30N 25°47' W 080°10'0 0.0
2019-Sep-13 14:01N 25°47' W 080°10'0 0.0
2019-Sep-13 13:30N 25°47' W 080°10'0 0.0
2019-Sep-13 13:00N 25°47' W 080°10'0 0.0
2019-Sep-13 12:31N 25°47' W 080°10'0 0.0
2019-Sep-13 12:01N 25°47' W 080°10'0 0.0
2019-Sep-13 11:31N 25°47' W 080°10'0 0.0
2019-Sep-13 11:01N 25°47' W 080°10'0 0.6
2019-Sep-13 10:31N 25°47' W 080°10'4 8.5
2019-Sep-13 10:00N 25°46' W 080°05'6372.7
2019-Sep-13 10:00N 25°42' W 080°00'3 7.2 040 / 221011.7 28.023.930.0
2019-Sep-13 09:30N 25°45' W 079°60'714.4
2019-Sep-13 09:00N 25°40' W 079°55'714.9
2019-Sep-13 08:30N 25°33' W 079°54'713.7
2019-Sep-13 08:00N 25°26' W 079°53'815.9
2019-Sep-13 07:30N 25°18' W 079°51'14817.3
2019-Sep-12 23:00N 23°30' W 081°42'1817.6 010 / 221011.2 29.025.030.0
2019-Sep-12 22:00N 23°24' W 082°00'19916.5 010 / 231010.9 29.025.030.0
2019-Sep-12 10:00N 22°06' W 085°18'11618.2 050 / 181012.1 30.026.030.0
2019-Sep-12 03:39N 20°46' W 086°48'318.8
2019-Sep-12 03:30N 20°44' W 086°50'919.1
2019-Sep-12 03:00N 20°37' W 086°56'612.3
2019-Sep-12 02:30N 20°31' W 086°59'2 4.3
2019-Sep-12 01:56N 20°29' W 086°59'0 0.0
2019-Sep-12 01:26N 20°29' W 086°59'0 0.0
2019-Sep-12 00:56N 20°29' W 086°59'0 0.0
2019-Sep-12 00:26N 20°29' W 086°59'0 0.0
2019-Sep-11 23:56N 20°29' W 086°59'0 0.0
2019-Sep-11 23:26N 20°29' W 086°59'614.3
2019-Sep-11 23:00N 20°24' W 086°54'6111.6 030 / 91012.0 29.026.330.0
2019-Sep-11 22:56N 20°29' W 086°59'0 0.0
2019-Sep-11 22:26N 20°29' W 086°59'0 0.0
2019-Sep-11 21:56N 20°29' W 086°59'0 0.0
2019-Sep-11 21:26N 20°29' W 086°59'  

Dump ship's entire track history